Time;durP1;ratioP1;P1;durP2;ratioP2;P2;SDS_P1;SDS_P2;PMS_P1;PMS_P2;Temp;Humidity;BMP_temperature;BMP_pressure;BME280_temperature;BME280_humidity;BME280_pressure;Samples;Min_cycle;Max_cycle;Signal;HPM_P1;HPM_P2
2023/09/15 06:41:46;;;;;;;7.90;6.60;;;;;;;16.86;96.64;95832.69;104078;1303;545340;-79
2023/09/15 06:44:23;;;;;;;7.20;5.70;;;;;;;16.89;96.60;95833.84;106475;1286;26086;-79
2023/09/15 06:46:51;;;;;;;10.20;5.70;;;;;;;16.93;96.51;95831.70;106562;1286;25320;-76
2023/09/15 06:49:21;;;;;;;9.50;5.80;;;;;;;16.99;96.42;95838.41;106474;1286;22743;-77
2023/09/15 06:51:50;;;;;;;10.30;4.40;;;;;;;17.05;96.24;95837.63;106625;1286;23158;-77
2023/09/15 06:54:18;;;;;;;9.90;4.30;;;;;;;17.13;96.28;95841.41;106198;1283;273942;-77
2023/09/15 06:56:46;;;;;;;7.20;5.10;;;;;;;17.23;96.35;95834.59;106473;1283;22725;-77
2023/09/15 06:59:14;;;;;;;8.40;5.60;;;;;;;17.29;96.03;95838.94;106224;1283;24406;-77
2023/09/15 07:01:43;;;;;;;12.40;7.40;;;;;;;17.35;95.69;95843.34;107554;1272;24366;-77
2023/09/15 07:04:13;;;;;;;9.30;7.00;;;;;;;17.41;95.49;95839.71;107545;1272;22565;-78
2023/09/15 07:06:42;;;;;;;6.20;5.00;;;;;;;17.49;94.74;95845.59;107287;1272;24129;-78
2023/09/15 07:09:10;;;;;;;7.20;5.40;;;;;;;17.51;93.52;95843.57;107527;1272;24247;-79
2023/09/15 07:11:38;;;;;;;5.90;4.40;;;;;;;17.52;93.60;95845.64;107480;1272;24196;-80
2023/09/15 07:14:06;;;;;;;7.70;4.80;;;;;;;17.60;94.22;95846.92;107356;1272;22506;-78
2023/09/15 07:16:35;;;;;;;3.70;3.40;;;;;;;17.68;93.95;95847.10;107639;1272;25236;-79
2023/09/15 07:19:03;;;;;;;8.40;3.50;;;;;;;17.74;93.26;95847.73;110868;1272;22184;-76
2023/09/15 07:21:41;;;;;;;6.40;4.20;;;;;;;17.80;92.59;95853.92;107542;1272;24250;-76
2023/09/15 07:24:10;;;;;;;4.80;4.10;;;;;;;17.84;92.48;95853.94;107365;1249;25281;-78
2023/09/15 07:26:38;;;;;;;5.10;3.60;;;;;;;17.88;92.43;95852.70;107030;1272;25917;-78
2023/09/15 07:29:06;;;;;;;5.40;3.50;;;;;;;17.98;92.71;95852.83;107464;1272;24044;-78
2023/09/15 07:31:37;;;;;;;5.80;3.80;;;;;;;18.09;93.24;95850.73;107662;1272;22584;-77
2023/09/15 07:34:05;;;;;;;3.30;3.00;;;;;;;18.23;93.31;95854.37;108909;1272;22543;-74
2023/09/15 07:36:33;;;;;;;6.30;3.40;;;;;;;18.31;91.97;95854.70;107173;1272;25299;-74
2023/09/15 07:39:04;;;;;;;4.30;3.70;;;;;;;18.33;91.09;95852.32;107103;1272;22687;-75
2023/09/15 07:41:34;;;;;;;7.20;4.00;;;;;;;18.37;90.87;95856.74;107164;1272;22542;-77
2023/09/15 07:44:02;;;;;;;8.50;4.60;;;;;;;18.39;90.34;95855.10;106918;1272;23890;-77
2023/09/15 07:46:31;;;;;;;5.00;4.40;;;;;;;18.35;89.67;95858.83;107778;1263;22528;-78
2023/09/15 07:48:59;;;;;;;5.80;4.20;;;;;;;18.33;89.83;95859.10;107705;1272;23336;-78
2023/09/15 07:51:27;;;;;;;6.50;4.70;;;;;;;18.38;90.48;95860.83;107687;1272;22525;-78
2023/09/15 07:53:56;;;;;;;7.30;4.60;;;;;;;18.53;90.27;95859.81;107721;1273;22662;-79
2023/09/15 07:56:24;;;;;;;6.10;5.30;;;;;;;18.65;90.42;95857.84;107318;1273;22585;-77
2023/09/15 07:58:53;;;;;;;6.30;4.60;;;;;;;18.82;90.41;95860.81;107708;1272;23518;-79
2023/09/15 08:01:22;;;;;;;6.90;4.30;;;;;;;18.97;89.81;95867.58;107238;1273;22566;-78
2023/09/15 08:03:50;;;;;;;6.70;4.10;;;;;;;19.10;89.77;95865.71;107206;1272;25721;-77
2023/09/15 08:06:19;;;;;;;5.20;3.70;;;;;;;19.17;89.14;95866.64;107062;1251;22683;-76
2023/09/15 08:08:47;;;;;;;4.40;3.70;;;;;;;19.24;89.05;95868.06;107206;1273;22616;-79
2023/09/15 08:11:15;;;;;;;5.20;3.70;;;;;;;19.30;88.17;95869.54;107770;1273;22507;-79
2023/09/15 08:13:43;;;;;;;6.10;3.60;;;;;;;19.37;87.65;95865.83;107737;1273;26739;-81
2023/09/15 08:16:12;;;;;;;5.50;3.80;;;;;;;19.40;86.88;95866.77;107715;1273;26673;-77
2023/09/15 08:18:40;;;;;;;5.20;3.40;;;;;;;19.43;86.92;95862.84;107291;1273;26535;-78
2023/09/15 08:21:09;;;;;;;5.90;4.30;;;;;;;19.59;87.42;95862.62;107195;1272;23931;-77
2023/09/15 08:23:37;;;;;;;7.10;3.70;;;;;;;19.79;86.53;95864.14;107442;1273;22769;-78
2023/09/15 08:26:05;;;;;;;4.80;3.80;;;;;;;19.88;85.54;95862.42;107148;1273;22642;-77
2023/09/15 08:28:34;;;;;;;4.70;3.90;;;;;;;19.96;85.22;95859.18;107187;1261;22520;-78
2023/09/15 08:31:02;;;;;;;5.70;4.80;;;;;;;20.04;85.71;95858.61;107265;1272;25349;-77
2023/09/15 08:33:30;;;;;;;6.60;4.50;;;;;;;20.14;84.04;95858.07;107083;1272;22772;-77
2023/09/15 08:35:58;;;;;;;8.20;5.40;;;;;;;20.16;82.44;95864.58;106852;1273;22543;-77
2023/09/15 08:38:31;;;;;;;9.00;4.80;;;;;;;20.20;82.54;95868.45;107470;1273;25255;-79
2023/09/15 08:41:05;;;;;;;9.20;5.60;;;;;;;20.21;81.75;95868.39;107275;1273;24389;-79
2023/09/15 08:43:34;;;;;;;9.00;4.60;;;;;;;20.18;81.12;95861.80;110759;1272;22259;-76
2023/09/15 08:46:05;;;;;;;6.50;4.60;;;;;;;20.11;80.86;95861.46;107945;1270;25428;-76
2023/09/15 08:48:40;;;;;;;5.30;4.70;;;;;;;20.04;81.33;95860.38;107270;1273;22559;-79
2023/09/15 08:51:09;;;;;;;5.20;4.70;;;;;;;20.02;82.19;95860.10;107535;1273;22649;-77
2023/09/15 08:53:38;;;;;;;5.40;4.90;;;;;;;19.99;82.24;95860.42;107439;1273;22544;-77
2023/09/15 08:56:07;;;;;;;6.00;5.30;;;;;;;19.96;82.31;95858.09;107688;1273;22543;-77
2023/09/15 08:58:36;;;;;;;5.50;4.30;;;;;;;19.94;82.31;95862.30;107373;1273;24271;-77
2023/09/15 09:01:07;;;;;;;5.70;4.60;;;;;;;19.94;82.46;95857.82;107627;1273;23870;-79
2023/09/15 09:03:38;;;;;;;5.00;4.10;;;;;;;19.96;82.15;95860.23;107493;1260;22529;-77
2023/09/15 09:06:09;;;;;;;5.40;4.10;;;;;;;19.97;81.65;95859.84;107562;1262;22516;-77
2023/09/15 09:08:44;;;;;;;6.10;3.90;;;;;;;19.94;81.71;95861.25;107503;1273;25302;-76
2023/09/15 09:11:13;;;;;;;7.20;4.20;;;;;;;19.94;82.00;95867.10;107726;1273;22601;-77
2023/09/15 09:13:50;;;;;;;5.20;4.20;;;;;;;19.96;82.50;95867.40;107481;1273;22520;-76
2023/09/15 09:16:20;;;;;;;6.70;4.60;;;;;;;19.99;83.22;95867.24;107347;1273;23014;-76
2023/09/15 09:18:58;;;;;;;5.90;5.10;;;;;;;19.98;83.07;95872.83;107587;1273;22520;-77
2023/09/15 09:21:29;;;;;;;8.50;5.30;;;;;;;20.02;83.50;95870.64;107259;1263;23018;-77
2023/09/15 09:23:58;;;;;;;5.80;4.70;;;;;;;20.05;82.76;95870.29;107274;1273;24366;-76
2023/09/15 09:26:27;;;;;;;4.10;3.70;;;;;;;20.10;83.16;95872.04;107303;1273;22524;-78
2023/09/15 09:28:59;;;;;;;8.00;4.70;;;;;;;20.18;82.87;95870.56;107164;1273;22516;-78
2023/09/15 09:31:28;;;;;;;13.80;5.50;;;;;;;20.23;82.27;95871.16;107294;1273;22516;-78
2023/09/15 09:34:01;;;;;;;11.30;5.10;;;;;;;20.27;82.75;95871.31;107683;1273;22637;-80
2023/09/15 09:36:30;;;;;;;8.50;4.70;;;;;;;20.37;82.37;95877.21;107522;1273;23906;-78
2023/09/15 09:39:00;;;;;;;6.00;4.50;;;;;;;20.36;81.20;95878.38;107494;1273;25214;-78
2023/09/15 09:41:29;;;;;;;6.10;4.00;;;;;;;20.30;81.39;95874.73;108131;1263;25345;-76
2023/09/15 09:44:03;;;;;;;9.70;5.20;;;;;;;20.28;81.40;95874.82;106971;1265;22527;-76
2023/09/15 09:46:33;;;;;;;9.60;4.30;;;;;;;20.28;81.61;95881.80;107178;1274;25353;-78
2023/09/15 09:49:03;;;;;;;8.80;5.00;;;;;;;20.30;81.19;95882.06;106891;1274;22522;-78
2023/09/15 09:51:32;;;;;;;5.90;4.90;;;;;;;20.30;81.44;95880.79;106847;1274;24300;-78
2023/09/15 09:54:01;;;;;;;5.70;5.20;;;;;;;20.30;81.21;95883.48;106910;1274;25396;-78
2023/09/15 09:56:35;;;;;;;7.40;5.10;;;;;;;20.33;81.50;95886.55;107081;1274;24393;-78
2023/09/15 09:59:12;;;;;;;6.20;4.70;;;;;;;20.35;81.05;95886.45;107412;1274;25440;-79
2023/09/15 10:01:41;;;;;;;7.80;5.70;;;;;;;20.25;80.86;95888.38;107349;1274;23144;-79
2023/09/15 10:04:10;;;;;;;7.40;4.40;;;;;;;20.23;81.69;95886.86;106921;1275;23002;-78
2023/09/15 10:06:38;;;;;;;4.40;4.00;;;;;;;20.21;81.31;95888.59;106951;1274;24365;-78
2023/09/15 10:09:07;;;;;;;6.40;4.60;;;;;;;20.15;80.90;95886.08;106894;1274;22755;-78
2023/09/15 10:11:36;;;;;;;5.60;4.30;;;;;;;20.13;81.36;95886.84;106882;1274;22532;-77
2023/09/15 10:14:04;;;;;;;5.80;5.10;;;;;;;20.01;81.41;95883.75;106849;1274;22524;-78
2023/09/15 10:16:34;;;;;;;9.70;4.60;;;;;;;19.89;82.05;95885.98;106744;1274;22527;-78
2023/09/15 10:19:03;;;;;;;13.30;5.60;;;;;;;19.82;82.57;95884.16;106799;1260;24266;-78
2023/09/15 10:21:34;;;;;;;7.80;5.70;;;;;;;19.77;82.87;95882.29;107152;1274;22634;-78
2023/09/15 10:24:10;;;;;;;9.80;5.50;;;;;;;19.69;83.13;95882.84;107068;1274;22518;-78
2023/09/15 10:26:41;;;;;;;8.20;5.80;;;;;;;19.61;83.10;95883.19;106829;1275;22638;-78
2023/09/15 10:29:13;;;;;;;8.90;5.80;;;;;;;19.53;83.40;95884.33;106872;1274;22531;-77
2023/09/15 10:31:43;;;;;;;7.90;5.40;;;;;;;19.43;83.60;95886.41;106835;1260;24382;-78
2023/09/15 10:34:13;;;;;;;6.00;5.10;;;;;;;19.36;83.62;95890.67;106864;1274;25412;-78
2023/09/15 10:36:43;;;;;;;6.60;4.70;;;;;;;19.31;83.96;95886.82;106770;1274;25348;-78
2023/09/15 10:39:17;;;;;;;6.70;4.90;;;;;;;19.31;84.34;95888.07;106850;1257;25246;-78
2023/09/15 10:41:46;;;;;;;6.80;4.40;;;;;;;19.30;84.91;95889.16;106847;1274;25610;-78
2023/09/15 10:44:14;;;;;;;6.30;4.60;;;;;;;19.23;84.98;95886.67;107091;1274;22520;-77
2023/09/15 10:46:43;;;;;;;5.70;4.60;;;;;;;19.17;85.08;95887.66;106942;1274;25352;-77
2023/09/15 10:49:19;;;;;;;6.40;5.00;;;;;;;19.13;85.09;95889.65;106851;1274;22536;-78
2023/09/15 10:51:52;;;;;;;7.10;5.20;;;;;;;19.10;85.60;95886.05;106791;1274;22536;-78
2023/09/15 10:54:21;;;;;;;5.70;5.10;;;;;;;19.16;86.21;95888.08;106827;1274;22519;-76
2023/09/15 10:56:49;;;;;;;6.30;4.50;;;;;;;19.21;86.30;95888.55;106876;1274;25403;-76
2023/09/15 10:59:17;;;;;;;28.70;6.50;;;;;;;19.21;86.00;95889.44;106965;1274;25313;-78
2023/09/15 11:01:46;;;;;;;5.90;4.80;;;;;;;19.24;85.94;95889.13;106810;1274;25597;-78
2023/09/15 11:04:22;;;;;;;5.00;4.40;;;;;;;19.27;85.83;95892.74;106870;1274;24871;-77
2023/09/15 11:06:52;;;;;;;5.40;4.80;;;;;;;19.20;85.08;95889.64;106739;1274;24219;-77
2023/09/15 11:09:21;;;;;;;5.50;5.00;;;;;;;19.18;85.83;95891.02;106818;1274;22670;-77
2023/09/15 11:11:51;;;;;;;5.80;4.90;;;;;;;19.20;86.37;95888.95;106868;1274;22798;-77
2023/09/15 11:14:21;;;;;;;7.60;5.00;;;;;;;19.20;86.23;95891.80;106939;1274;22528;-77
2023/09/15 11:16:51;;;;;;;7.50;4.90;;;;;;;19.21;86.00;95892.11;106891;1274;24352;-77
2023/09/15 11:19:23;;;;;;;5.00;4.50;;;;;;;19.17;85.78;95893.36;106865;1263;25198;-77
2023/09/15 11:21:52;;;;;;;6.10;5.20;;;;;;;19.11;86.05;95890.63;106817;1274;24082;-77
2023/09/15 11:24:21;;;;;;;5.80;5.00;;;;;;;19.05;86.21;95890.23;106833;1275;22644;-77
2023/09/15 11:26:51;;;;;;;4.90;4.30;;;;;;;18.98;86.82;95891.91;106828;1274;22531;-77
2023/09/15 11:29:27;;;;;;;6.40;4.70;;;;;;;18.92;86.97;95890.62;106792;1274;24399;-76
2023/09/15 11:31:58;;;;;;;4.50;4.10;;;;;;;18.87;87.26;95894.81;106889;1275;22632;-77
2023/09/15 11:34:26;;;;;;;4.60;4.10;;;;;;;18.88;87.54;95896.52;106990;1274;22530;-76
2023/09/15 11:37:00;;;;;;;5.40;4.50;;;;;;;18.85;87.27;95899.52;107104;1274;24959;-76
2023/09/15 11:39:31;;;;;;;8.20;4.40;;;;;;;18.74;87.75;95902.86;106946;1273;23445;-78
2023/09/15 11:42:09;;;;;;;6.10;4.20;;;;;;;18.62;88.68;95898.23;106986;1273;25642;-76
2023/09/15 11:44:37;;;;;;;7.20;4.10;;;;;;;18.48;88.35;95895.47;106925;1273;22527;-76
2023/09/15 11:47:08;;;;;;;6.60;4.30;;;;;;;18.36;87.98;95894.39;106978;1273;25393;-76
2023/09/15 11:49:36;;;;;;;7.80;4.60;;;;;;;18.33;89.73;95894.70;107031;1273;22527;-76
2023/09/15 11:52:05;;;;;;;7.40;4.40;;;;;;;18.40;90.81;95895.84;107040;1273;25724;-76
2023/09/15 11:54:34;;;;;;;7.50;4.40;;;;;;;18.43;90.93;95895.88;106953;1273;25513;-75
2023/09/15 11:57:02;;;;;;;8.20;4.70;;;;;;;18.46;91.18;95895.38;106945;1273;22530;-76
2023/09/15 11:59:31;;;;;;;5.80;3.90;;;;;;;18.49;90.94;95895.25;106970;1273;24069;-76
2023/09/15 12:02:02;;;;;;;5.40;4.10;;;;;;;18.50;90.56;95895.00;106919;1273;22763;-75
2023/09/15 12:04:30;;;;;;;5.30;3.50;;;;;;;18.59;90.97;95893.20;106977;1273;22520;-75
2023/09/15 12:06:59;;;;;;;5.50;4.20;;;;;;;18.65;90.34;95892.39;107000;1273;22643;-76
2023/09/15 12:09:27;;;;;;;6.60;4.30;;;;;;;18.70;90.42;95886.83;106820;1273;25410;-75
2023/09/15 12:11:56;;;;;;;4.20;3.80;;;;;;;18.77;90.48;95886.15;106923;1273;23238;-75
2023/09/15 12:14:24;;;;;;;4.90;3.90;;;;;;;18.82;90.67;95889.30;106910;1273;22650;-76
2023/09/15 12:16:57;;;;;;;6.40;4.30;;;;;;;18.89;90.32;95884.68;107047;1273;25360;-77
2023/09/15 12:19:25;;;;;;;4.50;4.00;;;;;;;18.91;89.93;95889.09;106966;1273;25436;-77
2023/09/15 12:21:59;;;;;;;6.50;4.20;;;;;;;18.93;90.20;95888.46;107019;1273;25665;-77
2023/09/15 12:24:28;;;;;;;6.50;4.60;;;;;;;19.01;90.44;95888.23;107112;1263;22514;-77
2023/09/15 12:27:01;;;;;;;5.80;4.40;;;;;;;19.07;90.02;95883.85;107185;1273;23704;-78
2023/09/15 12:29:31;;;;;;;5.10;4.60;;;;;;;19.05;89.32;95884.86;107151;1273;22526;-76
2023/09/15 12:32:02;;;;;;;4.30;3.80;;;;;;;19.01;89.69;95879.50;107130;1273;22539;-76
2023/09/15 12:34:30;;;;;;;5.40;4.90;;;;;;;18.98;89.88;95880.71;107088;1273;25415;-76
2023/09/15 12:37:07;;;;;;;6.70;5.80;;;;;;;19.05;90.43;95879.33;106931;1273;22727;-76
2023/09/15 12:39:35;;;;;;;7.20;5.70;;;;;;;19.11;90.07;95881.73;106938;1273;24212;-76
2023/09/15 12:42:06;;;;;;;6.10;5.50;;;;;;;19.15;89.70;95878.50;106980;1273;25328;-76
2023/09/15 12:44:42;;;;;;;6.40;5.50;;;;;;;19.19;89.84;95878.45;106970;1273;24403;-76
2023/09/15 12:47:11;;;;;;;5.50;4.90;;;;;;;19.26;89.62;95877.23;106960;1273;25415;-76
2023/09/15 12:49:41;;;;;;;6.10;4.90;;;;;;;19.27;89.29;95876.68;107119;1273;25482;-77
2023/09/15 12:52:09;;;;;;;7.00;5.70;;;;;;;19.28;89.59;95881.27;106942;1273;25546;-76
2023/09/15 12:54:38;;;;;;;5.60;4.90;;;;;;;19.33;89.48;95883.90;106955;1273;22566;-77
2023/09/15 12:57:07;;;;;;;7.90;5.70;;;;;;;19.39;89.49;95880.38;106900;1273;22474;-76
2023/09/15 12:59:35;;;;;;;5.30;4.70;;;;;;;19.43;89.07;95881.77;106948;1273;22637;-76
2023/09/15 13:02:03;;;;;;;6.00;5.00;;;;;;;19.48;88.72;95879.04;107122;1273;24369;-76
2023/09/15 13:04:32;;;;;;;8.00;4.80;;;;;;;19.50;88.93;95874.65;107058;1273;22744;-77
2023/09/15 13:07:01;;;;;;;5.20;4.70;;;;;;;19.60;88.86;95872.20;107079;1272;22639;-77
2023/09/15 13:09:31;;;;;;;6.70;6.00;;;;;;;19.71;89.13;95872.39;107144;1272;25661;-76
2023/09/15 13:12:00;;;;;;;6.60;5.60;;;;;;;19.74;88.03;95868.84;107039;1272;24069;-76
2023/09/15 13:14:29;;;;;;;7.00;4.90;;;;;;;19.71;87.54;95870.78;107086;1272;22524;-76
2023/09/15 13:16:57;;;;;;;6.70;4.30;;;;;;;19.70;87.35;95870.84;107166;1272;22611;-77
2023/09/15 13:19:26;;;;;;;4.90;3.80;;;;;;;19.68;87.00;95870.05;107196;1273;22523;-76
2023/09/15 13:21:54;;;;;;;4.40;3.20;;;;;;;19.65;86.89;95872.66;107231;1272;24215;-76
2023/09/15 13:24:22;;;;;;;4.70;2.80;;;;;;;19.62;86.61;95868.14;107042;1272;22530;-76
2023/09/15 13:26:52;;;;;;;3.60;2.60;;;;;;;19.55;86.23;95868.71;107021;1272;22527;-76
2023/09/15 13:29:20;;;;;;;2.60;1.90;;;;;;;19.51;86.24;95868.35;107098;1272;25418;-76
2023/09/15 13:31:48;;;;;;;2.50;2.10;;;;;;;19.47;85.96;95871.40;107234;1272;25351;-76
2023/09/15 13:34:17;;;;;;;2.10;1.90;;;;;;;19.45;85.76;95873.83;107244;1272;22638;-76
2023/09/15 13:36:45;;;;;;;3.20;1.60;;;;;;;19.41;85.50;95879.20;107096;1272;26852;-76
2023/09/15 13:39:14;;;;;;;1.30;1.00;;;;;;;19.30;84.89;95879.91;107002;1272;23903;-76
2023/09/15 13:41:42;;;;;;;4.30;1.60;;;;;;;19.20;84.98;95880.02;107091;1272;22633;-76
2023/09/15 13:44:10;;;;;;;1.80;1.00;;;;;;;19.11;84.84;95879.05;107138;1273;22525;-76
2023/09/15 13:46:38;;;;;;;1.20;0.90;;;;;;;19.02;84.72;95878.59;107240;1272;22643;-76
2023/09/15 13:49:06;;;;;;;1.70;1.10;;;;;;;18.95;84.90;95881.05;107232;1272;22917;-76
2023/09/15 13:51:35;;;;;;;0.90;0.70;;;;;;;18.81;85.04;95875.80;107224;1272;25520;-76
2023/09/15 13:55:13;;;;;;;1.30;0.80;;;;;;;18.68;85.39;95875.50;103713;1305;544986;-76
2023/09/15 13:57:42;;;;;;;1.40;0.70;;;;;;;18.60;85.86;95873.52;106624;1281;22653;-76
2023/09/15 14:00:10;;;;;;;0.50;0.50;;;;;;;18.53;85.52;95872.96;106583;1281;22592;-76
2023/09/15 14:02:40;;;;;;;1.30;0.80;;;;;;;18.46;85.64;95870.45;106572;1281;25642;-76
2023/09/15 14:05:08;;;;;;;4.40;0.90;;;;;;;18.39;85.73;95859.19;106390;1281;25396;-76
2023/09/15 14:07:36;;;;;;;2.00;0.70;;;;;;;18.39;86.22;95863.08;106601;1281;25348;-76
2023/09/15 14:10:05;;;;;;;2.30;0.90;;;;;;;18.40;86.08;95863.94;106509;1279;252036;-76
2023/09/15 14:12:33;;;;;;;2.10;0.90;;;;;;;18.39;86.25;95868.45;106686;1279;24223;-76
2023/09/15 14:15:02;;;;;;;3.20;1.30;;;;;;;18.45;86.44;95869.43;106362;1277;25531;-77
2023/09/15 14:17:30;;;;;;;1.40;1.30;;;;;;;18.51;86.37;95875.74;106333;1279;22710;-76
2023/09/15 14:19:59;;;;;;;1.00;0.90;;;;;;;18.53;86.12;95873.86;106355;1279;24264;-77
2023/09/15 14:22:27;;;;;;;5.00;0.90;;;;;;;18.54;86.13;95873.11;106638;1279;22529;-76
2023/09/15 14:24:55;;;;;;;1.50;0.70;;;;;;;18.61;86.46;95871.52;106377;1279;22560;-77
2023/09/15 14:27:24;;;;;;;1.00;0.80;;;;;;;18.77;86.43;95867.23;106459;1279;24225;-76
2023/09/15 14:29:52;;;;;;;1.90;0.60;;;;;;;19.09;86.32;95866.83;106290;1279;22589;-76
2023/09/15 14:32:20;;;;;;;1.50;0.80;;;;;;;19.52;85.51;95862.60;106330;1279;25548;-76
2023/09/15 14:34:48;;;;;;;1.40;0.70;;;;;;;20.22;85.31;95859.96;106414;1279;24284;-76
2023/09/15 14:37:16;;;;;;;1.50;0.80;;;;;;;20.51;81.10;95860.92;106415;1279;25521;-76
2023/09/15 14:39:44;;;;;;;4.60;1.00;;;;;;;20.66;80.54;95865.73;106385;1279;22679;-77
2023/09/15 14:42:12;;;;;;;2.10;0.80;;;;;;;20.83;79.68;95860.63;106295;1279;24287;-76
2023/09/15 14:44:41;;;;;;;3.00;0.70;;;;;;;20.98;77.77;95866.81;106364;1279;22660;-76
2023/09/15 14:47:09;;;;;;;3.30;1.50;;;;;;;20.91;77.94;95869.69;106388;1279;23249;-75
2023/09/15 14:49:38;;;;;;;4.50;1.00;;;;;;;20.77;77.55;95874.41;106628;1275;24887;-76
2023/09/15 14:52:06;;;;;;;4.10;2.00;;;;;;;20.67;78.07;95878.33;106629;1275;22538;-76
2023/09/15 14:54:34;;;;;;;5.20;3.20;;;;;;;20.53;77.45;95878.56;106709;1275;25418;-76
2023/09/15 14:57:03;;;;;;;2.40;2.10;;;;;;;20.33;78.17;95878.31;106701;1275;22669;-76
2023/09/15 14:59:31;;;;;;;6.30;5.70;;;;;;;20.17;78.57;95873.41;106841;1253;22583;-76
2023/09/15 15:01:59;;;;;;;4.10;1.90;;;;;;;20.01;78.88;95866.41;106781;1275;23915;-76
2023/09/15 15:04:28;;;;;;;2.50;0.90;;;;;;;19.85;78.98;95869.89;106664;1275;22587;-76
2023/09/15 15:06:59;;;;;;;1.80;1.10;;;;;;;19.73;80.09;95873.22;106616;1275;24266;-76
2023/09/15 15:09:27;;;;;;;3.10;1.20;;;;;;;19.64;80.63;95872.35;106639;1275;25423;-76
2023/09/15 15:11:55;;;;;;;2.80;1.30;;;;;;;19.61;80.97;95870.73;106638;1275;22537;-76
2023/09/15 15:14:24;;;;;;;4.20;0.90;;;;;;;19.55;81.07;95874.08;106688;1260;25263;-77
2023/09/15 15:16:52;;;;;;;2.90;0.90;;;;;;;19.49;81.28;95873.61;106702;1275;25332;-76
2023/09/15 15:19:21;;;;;;;2.50;1.20;;;;;;;19.40;81.37;95879.60;106636;1275;25247;-76
2023/09/15 15:21:49;;;;;;;1.60;0.70;;;;;;;19.33;81.61;95884.41;106699;1275;22751;-77
2023/09/15 15:24:18;;;;;;;2.50;0.90;;;;;;;19.12;82.82;95890.77;106615;1275;25362;-76
2023/09/15 15:26:46;;;;;;;2.70;1.10;;;;;;;18.99;83.50;95884.94;106611;1275;22626;-76
2023/09/15 15:29:14;;;;;;;7.40;1.50;;;;;;;18.96;84.13;95886.16;106673;1275;24358;-76
2023/09/15 15:31:43;;;;;;;4.30;1.80;;;;;;;18.92;84.24;95883.66;106656;1275;23407;-76
2023/09/15 15:34:11;;;;;;;2.40;1.10;;;;;;;18.90;84.46;95889.66;106621;1275;23143;-74
2023/09/15 15:36:39;;;;;;;2.70;1.00;;;;;;;18.80;84.58;95889.39;106620;1275;22736;-76
2023/09/15 15:39:07;;;;;;;2.40;1.10;;;;;;;18.73;84.72;95894.00;106627;1259;22614;-74
2023/09/15 15:41:36;;;;;;;4.10;1.20;;;;;;;18.70;84.84;95892.17;106578;1275;22628;-74
2023/09/15 15:44:04;;;;;;;1.70;0.90;;;;;;;18.66;85.49;95890.20;106622;1275;22574;-75
2023/09/15 15:46:33;;;;;;;1.00;0.80;;;;;;;18.69;85.57;95890.44;106757;1275;22552;-75
2023/09/15 15:49:02;;;;;;;2.70;1.20;;;;;;;18.67;84.98;95888.75;106855;1275;22534;-75
2023/09/15 15:51:30;;;;;;;1.40;1.10;;;;;;;18.62;85.22;95893.93;106673;1275;25483;-76
2023/09/15 15:53:58;;;;;;;5.40;1.30;;;;;;;18.60;85.38;95891.89;106619;1275;24233;-75
2023/09/15 15:56:29;;;;;;;5.70;1.50;;;;;;;18.56;85.44;95893.84;106629;1275;22767;-76
2023/09/15 15:58:57;;;;;;;2.10;1.40;;;;;;;18.52;85.52;95892.98;106597;1275;24242;-76
2023/09/15 16:01:26;;;;;;;2.50;1.00;;;;;;;18.51;85.73;95901.20;106604;1275;25389;-76
2023/09/15 16:03:54;;;;;;;1.20;1.00;;;;;;;18.54;85.88;95902.51;106736;1275;25404;-76
2023/09/15 16:06:22;;;;;;;2.80;1.60;;;;;;;18.53;85.91;95903.10;106751;1275;22792;-76
2023/09/15 16:08:50;;;;;;;4.00;1.40;;;;;;;18.50;86.38;95904.98;106866;1275;22647;-75
2023/09/15 16:11:19;;;;;;;2.40;1.00;;;;;;;18.51;86.27;95902.80;106637;1271;24270;-76
2023/09/15 16:13:47;;;;;;;2.90;1.40;;;;;;;18.53;86.79;95897.55;106608;1275;25422;-75
2023/09/15 16:16:15;;;;;;;6.30;1.30;;;;;;;18.51;86.52;95895.13;106617;1275;24374;-75
2023/09/15 16:18:43;;;;;;;4.40;1.30;;;;;;;18.52;86.90;95897.77;106617;1275;22626;-76
2023/09/15 16:21:11;;;;;;;3.80;1.30;;;;;;;18.46;86.23;95896.61;106631;1275;22533;-76
2023/09/15 16:23:39;;;;;;;4.00;1.30;;;;;;;18.39;86.96;95895.52;106570;1275;22678;-76
2023/09/15 16:26:07;;;;;;;2.80;1.30;;;;;;;18.33;86.50;95893.63;106974;1275;22530;-76
2023/09/15 16:28:35;;;;;;;2.30;1.40;;;;;;;18.29;87.30;95892.92;106623;1275;25569;-75
2023/09/15 16:31:03;;;;;;;4.70;1.40;;;;;;;18.26;87.36;95900.17;106648;1275;22539;-76
2023/09/15 16:33:32;;;;;;;2.60;1.90;;;;;;;18.28;88.05;95905.45;106667;1275;25249;-76
2023/09/15 16:36:02;;;;;;;2.50;1.70;;;;;;;18.28;88.22;95910.95;106636;1275;25136;-76
2023/09/15 16:38:31;;;;;;;3.30;2.00;;;;;;;18.30;88.80;95920.48;106622;1253;25562;-76
2023/09/15 16:41:00;;;;;;;4.80;1.40;;;;;;;18.26;88.36;95920.81;106623;1275;25395;-76
2023/09/15 16:43:31;;;;;;;6.20;1.70;;;;;;;18.18;87.84;95921.73;106674;1275;22661;-76
2023/09/15 16:46:00;;;;;;;4.80;2.00;;;;;;;18.12;88.41;95924.84;106649;1275;22586;-76
2023/09/15 16:48:32;;;;;;;5.10;1.80;;;;;;;18.10;88.73;95927.73;106700;1275;22796;-75
2023/09/15 16:51:00;;;;;;;1.60;1.50;;;;;;;18.11;89.19;95931.29;106611;1275;23956;-77
2023/09/15 16:53:28;;;;;;;4.50;1.60;;;;;;;18.10;88.98;95935.05;106620;1275;22557;-76
2023/09/15 16:55:56;;;;;;;3.20;1.60;;;;;;;18.11;88.94;95933.74;106630;1275;22811;-76
2023/09/15 16:58:24;;;;;;;7.10;1.20;;;;;;;18.07;88.50;95929.50;106599;1275;22526;-76
2023/09/15 17:00:54;;;;;;;5.90;1.50;;;;;;;18.04;88.47;95932.13;106609;1275;22678;-76
2023/09/15 17:03:24;;;;;;;2.50;1.80;;;;;;;18.03;88.68;95936.07;106571;1275;24397;-76
2023/09/15 17:06:08;;;;;;;2.00;1.50;;;;;;;18.05;89.66;95937.41;103664;1307;545122;-77
2023/09/15 17:08:36;;;;;;;6.00;2.20;;;;;;;18.05;89.85;95938.84;105950;1289;24244;-76
2023/09/15 17:11:06;;;;;;;6.30;1.90;;;;;;;18.01;90.28;95942.54;105918;1289;22558;-76
2023/09/15 17:13:34;;;;;;;4.50;1.70;;;;;;;18.01;90.38;95943.28;105831;1289;24380;-76
2023/09/15 17:16:02;;;;;;;7.20;1.50;;;;;;;18.04;90.69;95941.92;105776;1289;22801;-76
2023/09/15 17:18:30;;;;;;;5.40;1.70;;;;;;;18.09;90.83;95944.36;105753;1289;22769;-76
2023/09/15 17:20:59;;;;;;;3.00;1.90;;;;;;;18.09;90.50;95945.23;105716;1286;263506;-76
2023/09/15 17:23:27;;;;;;;4.00;1.60;;;;;;;18.06;90.81;95948.74;105852;1286;22539;-76
2023/09/15 17:25:57;;;;;;;2.00;1.20;;;;;;;17.96;90.79;95953.99;105874;1286;24242;-76
2023/09/15 17:28:25;;;;;;;1.30;1.20;;;;;;;17.88;90.76;95958.04;105944;1286;22680;-76
2023/09/15 17:30:53;;;;;;;4.10;1.20;;;;;;;17.83;90.83;95960.95;105925;1286;24414;-76
2023/09/15 17:33:21;;;;;;;3.20;1.40;;;;;;;17.83;91.02;95957.73;105907;1286;24363;-76
2023/09/15 17:35:50;;;;;;;2.10;1.10;;;;;;;17.84;91.33;95958.40;106698;1279;24257;-76
2023/09/15 17:38:18;;;;;;;4.40;1.20;;;;;;;17.85;91.80;95960.14;106359;1279;24405;-76
2023/09/15 17:40:46;;;;;;;4.50;1.30;;;;;;;17.78;91.35;95960.57;106345;1279;24403;-76
2023/09/15 17:43:14;;;;;;;4.60;1.30;;;;;;;17.76;91.58;95962.27;106351;1279;22746;-76
2023/09/15 17:45:42;;;;;;;2.80;1.20;;;;;;;17.79;91.80;95961.96;106407;1279;24274;-76
2023/09/15 17:48:10;;;;;;;7.80;1.50;;;;;;;17.84;92.09;95963.54;106306;1279;24246;-76
2023/09/15 17:50:38;;;;;;;3.80;2.10;;;;;;;17.86;91.93;95962.94;106559;1279;24250;-76
2023/09/15 17:53:06;;;;;;;8.50;1.80;;;;;;;17.90;92.06;95965.98;106558;1279;24777;-76
2023/09/15 17:55:34;;;;;;;4.40;1.20;;;;;;;17.92;91.79;95969.63;106476;1279;22644;-76
2023/09/15 17:58:03;;;;;;;3.60;1.30;;;;;;;17.91;91.75;95970.89;106353;1279;22526;-76
2023/09/15 18:00:31;;;;;;;3.90;1.20;;;;;;;17.95;91.71;95973.05;106302;1279;24075;-76
2023/09/15 18:03:00;;;;;;;4.00;1.10;;;;;;;17.92;90.83;95971.41;106369;1278;22547;-76
2023/09/15 18:05:28;;;;;;;1.20;1.10;;;;;;;17.87;91.31;95972.33;106370;1279;22530;-76
2023/09/15 18:07:59;;;;;;;4.20;1.30;;;;;;;17.85;91.77;95975.95;106344;1279;22626;-75
2023/09/15 18:10:27;;;;;;;3.00;1.60;;;;;;;17.88;92.13;95973.17;106547;1279;25352;-76
2023/09/15 18:12:56;;;;;;;5.20;1.30;;;;;;;17.96;92.22;95970.35;106358;1266;24359;-76
2023/09/15 18:15:24;;;;;;;5.30;2.00;;;;;;;17.98;91.73;95967.78;106421;1279;25328;-77